West End, New York
Current Conditions -  °F | °C
As of 4:35 PM on Monday 24 Nov 2014 (Local Time) from KNY0 Reporting Station
Overcast Overcast  
Wind Chill: 64°   Ceiling: 10000
Heat Index: 64°   Visibility: 10mi
Dew Point: 49°   Wind: 13mph
Humidity: 58%   Direction: 200°SSW
Pressure: 29.46"   Gusts: 20mph
Location:  42.4787°N, 75.0181°W
Report Text: KNY0 242135Z AUTO 20011G17KT 10SM OVC100 18/09 A2946 RMK AO2 T01760093
Loading
Personal Weather Stations






























Interactive Weather Map New forecast layout! Learn more

10-Day Weather Forecast

Advertisements
Track Severe Weather on mobile